sensor_id;sensor_type;location;lat;lon;timestamp;P1;durP1;ratioP1;P2;durP2;ratioP2
27889;SDS011;15238;49.082;9.102;2022-12-18T00:00:51;78.00;;;35.77;;
27889;SDS011;15238;49.082;9.102;2022-12-18T00:02:52;88.13;;;37.13;;
27889;SDS011;15238;49.082;9.102;2022-12-18T00:04:52;105.43;;;44.17;;
27889;SDS011;15238;49.082;9.102;2022-12-18T00:06:53;89.37;;;40.00;;
27889;SDS011;15238;49.082;9.102;2022-12-18T00:08:54;126.20;;;50.30;;
27889;SDS011;15238;49.082;9.102;2022-12-18T00:10:57;117.27;;;46.67;;
27889;SDS011;15238;49.082;9.102;2022-12-18T00:13:04;123.50;;;46.73;;
27889;SDS011;15238;49.082;9.102;2022-12-18T00:15:05;78.00;;;36.73;;
27889;SDS011;15238;49.082;9.102;2022-12-18T00:17:06;98.20;;;41.70;;
27889;SDS011;15238;49.082;9.102;2022-12-18T00:19:06;104.00;;;42.53;;
27889;SDS011;15238;49.082;9.102;2022-12-18T00:21:07;82.90;;;39.07;;
27889;SDS011;15238;49.082;9.102;2022-12-18T00:23:10;78.90;;;34.37;;
27889;SDS011;15238;49.082;9.102;2022-12-18T00:25:10;83.70;;;38.63;;
27889;SDS011;15238;49.082;9.102;2022-12-18T00:27:11;77.83;;;34.90;;
27889;SDS011;15238;49.082;9.102;2022-12-18T00:29:12;83.67;;;37.40;;
27889;SDS011;15238;49.082;9.102;2022-12-18T00:31:18;80.37;;;35.63;;
27889;SDS011;15238;49.082;9.102;2022-12-18T00:33:21;62.53;;;30.87;;
27889;SDS011;15238;49.082;9.102;2022-12-18T00:35:21;71.50;;;31.73;;
27889;SDS011;15238;49.082;9.102;2022-12-18T00:37:22;79.57;;;36.00;;
27889;SDS011;15238;49.082;9.102;2022-12-18T00:39:22;70.57;;;33.20;;
27889;SDS011;15238;49.082;9.102;2022-12-18T00:41:24;64.27;;;32.83;;
27889;SDS011;15238;49.082;9.102;2022-12-18T00:43:44;67.37;;;31.83;;
27889;SDS011;15238;49.082;9.102;2022-12-18T00:45:44;69.00;;;30.60;;
27889;SDS011;15238;49.082;9.102;2022-12-18T00:47:45;68.60;;;31.40;;
27889;SDS011;15238;49.082;9.102;2022-12-18T00:49:46;64.97;;;29.50;;
27889;SDS011;15238;49.082;9.102;2022-12-18T00:51:47;61.37;;;29.07;;
27889;SDS011;15238;49.082;9.102;2022-12-18T00:53:48;62.00;;;28.90;;
27889;SDS011;15238;49.082;9.102;2022-12-18T00:55:49;61.33;;;28.70;;
27889;SDS011;15238;49.082;9.102;2022-12-18T00:57:50;61.87;;;30.10;;
27889;SDS011;15238;49.082;9.102;2022-12-18T00:59:52;54.23;;;28.50;;
27889;SDS011;15238;49.082;9.102;2022-12-18T01:01:52;62.37;;;27.93;;
27889;SDS011;15238;49.082;9.102;2022-12-18T01:03:53;61.80;;;28.20;;
27889;SDS011;15238;49.082;9.102;2022-12-18T01:05:53;65.70;;;29.73;;
27889;SDS011;15238;49.082;9.102;2022-12-18T01:07:55;57.40;;;29.10;;
27889;SDS011;15238;49.082;9.102;2022-12-18T01:09:56;61.57;;;28.70;;
27889;SDS011;15238;49.082;9.102;2022-12-18T01:11:56;66.73;;;30.70;;
27889;SDS011;15238;49.082;9.102;2022-12-18T01:13:57;59.97;;;29.07;;
27889;SDS011;15238;49.082;9.102;2022-12-18T01:15:59;63.50;;;28.03;;
27889;SDS011;15238;49.082;9.102;2022-12-18T01:17:59;64.47;;;28.03;;
27889;SDS011;15238;49.082;9.102;2022-12-18T01:20:00;56.10;;;27.13;;
27889;SDS011;15238;49.082;9.102;2022-12-18T01:22:01;55.17;;;28.73;;
27889;SDS011;15238;49.082;9.102;2022-12-18T01:24:01;55.93;;;27.07;;
27889;SDS011;15238;49.082;9.102;2022-12-18T01:26:12;61.93;;;29.37;;
27889;SDS011;15238;49.082;9.102;2022-12-18T01:28:14;63.73;;;28.57;;
27889;SDS011;15238;49.082;9.102;2022-12-18T01:30:14;66.40;;;29.97;;
27889;SDS011;15238;49.082;9.102;2022-12-18T01:32:15;72.27;;;31.90;;
27889;SDS011;15238;49.082;9.102;2022-12-18T01:34:16;81.30;;;32.47;;
27889;SDS011;15238;49.082;9.102;2022-12-18T01:36:21;76.10;;;31.43;;
27889;SDS011;15238;49.082;9.102;2022-12-18T01:38:23;67.30;;;30.13;;
27889;SDS011;15238;49.082;9.102;2022-12-18T01:40:23;75.83;;;31.77;;
27889;SDS011;15238;49.082;9.102;2022-12-18T01:42:24;80.53;;;33.43;;
27889;SDS011;15238;49.082;9.102;2022-12-18T01:46:57;81.63;;;33.47;;
27889;SDS011;15238;49.082;9.102;2022-12-18T01:48:59;69.00;;;31.50;;
27889;SDS011;15238;49.082;9.102;2022-12-18T01:51:01;78.60;;;33.07;;
27889;SDS011;15238;49.082;9.102;2022-12-18T01:53:11;69.47;;;30.70;;
27889;SDS011;15238;49.082;9.102;2022-12-18T01:55:15;66.87;;;31.23;;
27889;SDS011;15238;49.082;9.102;2022-12-18T01:57:18;68.77;;;30.93;;
27889;SDS011;15238;49.082;9.102;2022-12-18T01:59:19;74.40;;;33.97;;
27889;SDS011;15238;49.082;9.102;2022-12-18T02:01:21;73.53;;;32.30;;
27889;SDS011;15238;49.082;9.102;2022-12-18T02:03:23;73.17;;;31.17;;
27889;SDS011;15238;49.082;9.102;2022-12-18T02:07:51;68.00;;;29.70;;
27889;SDS011;15238;49.082;9.102;2022-12-18T02:12:12;62.23;;;27.57;;
27889;SDS011;15238;49.082;9.102;2022-12-18T02:16:57;69.63;;;28.45;;
27889;SDS011;15238;49.082;9.102;2022-12-18T02:19:06;60.63;;;27.70;;
27889;SDS011;15238;49.082;9.102;2022-12-18T02:21:51;63.97;;;26.77;;
27889;SDS011;15238;49.082;9.102;2022-12-18T02:26:30;65.97;;;27.85;;
27889;SDS011;15238;49.082;9.102;2022-12-18T02:28:42;62.83;;;28.13;;
27889;SDS011;15238;49.082;9.102;2022-12-18T02:30:48;63.53;;;29.13;;
27889;SDS011;15238;49.082;9.102;2022-12-18T02:32:53;62.20;;;28.13;;
27889;SDS011;15238;49.082;9.102;2022-12-18T02:34:56;59.27;;;28.47;;
27889;SDS011;15238;49.082;9.102;2022-12-18T02:36:58;60.90;;;28.67;;
27889;SDS011;15238;49.082;9.102;2022-12-18T02:39:02;65.00;;;29.67;;
27889;SDS011;15238;49.082;9.102;2022-12-18T02:41:04;62.90;;;27.77;;
27889;SDS011;15238;49.082;9.102;2022-12-18T02:43:10;69.83;;;28.10;;
27889;SDS011;15238;49.082;9.102;2022-12-18T02:45:11;64.50;;;29.03;;
27889;SDS011;15238;49.082;9.102;2022-12-18T02:47:12;64.40;;;29.60;;
27889;SDS011;15238;49.082;9.102;2022-12-18T02:51:52;71.77;;;31.77;;
27889;SDS011;15238;49.082;9.102;2022-12-18T02:54:04;65.60;;;31.67;;
27889;SDS011;15238;49.082;9.102;2022-12-18T02:56:20;134.87;;;58.40;;
27889;SDS011;15238;49.082;9.102;2022-12-18T02:58:27;82.63;;;36.47;;
27889;SDS011;15238;49.082;9.102;2022-12-18T03:07:49;66.65;;;29.33;;
27889;SDS011;15238;49.082;9.102;2022-12-18T03:10:01;73.47;;;31.77;;
27889;SDS011;15238;49.082;9.102;2022-12-18T03:12:04;70.97;;;31.73;;
27889;SDS011;15238;49.082;9.102;2022-12-18T03:14:24;76.30;;;34.37;;
27889;SDS011;15238;49.082;9.102;2022-12-18T03:16:28;71.33;;;32.40;;
27889;SDS011;15238;49.082;9.102;2022-12-18T03:18:47;73.93;;;31.87;;
27889;SDS011;15238;49.082;9.102;2022-12-18T03:20:51;77.23;;;32.03;;
27889;SDS011;15238;49.082;9.102;2022-12-18T03:22:55;71.30;;;29.97;;
27889;SDS011;15238;49.082;9.102;2022-12-18T03:25:00;73.63;;;31.00;;
27889;SDS011;15238;49.082;9.102;2022-12-18T03:27:05;73.63;;;32.33;;
27889;SDS011;15238;49.082;9.102;2022-12-18T03:29:28;70.10;;;29.53;;
27889;SDS011;15238;49.082;9.102;2022-12-18T03:31:35;64.30;;;28.43;;
27889;SDS011;15238;49.082;9.102;2022-12-18T03:33:53;59.87;;;28.17;;
27889;SDS011;15238;49.082;9.102;2022-12-18T03:35:55;61.70;;;28.07;;
27889;SDS011;15238;49.082;9.102;2022-12-18T03:37:56;58.07;;;28.90;;
27889;SDS011;15238;49.082;9.102;2022-12-18T03:39:56;63.03;;;28.23;;
27889;SDS011;15238;49.082;9.102;2022-12-18T03:42:00;60.83;;;29.43;;
27889;SDS011;15238;49.082;9.102;2022-12-18T03:44:12;61.37;;;28.67;;
27889;SDS011;15238;49.082;9.102;2022-12-18T03:46:28;63.70;;;29.37;;
27889;SDS011;15238;49.082;9.102;2022-12-18T03:49:22;68.90;;;31.43;;
27889;SDS011;15238;49.082;9.102;2022-12-18T03:51:26;68.50;;;30.57;;
27889;SDS011;15238;49.082;9.102;2022-12-18T03:53:44;60.70;;;29.47;;
27889;SDS011;15238;49.082;9.102;2022-12-18T03:55:52;65.10;;;28.83;;
27889;SDS011;15238;49.082;9.102;2022-12-18T03:57:53;66.03;;;28.67;;
27889;SDS011;15238;49.082;9.102;2022-12-18T03:59:55;67.03;;;29.00;;
27889;SDS011;15238;49.082;9.102;2022-12-18T04:02:00;61.47;;;28.20;;
27889;SDS011;15238;49.082;9.102;2022-12-18T04:04:03;59.33;;;28.07;;
27889;SDS011;15238;49.082;9.102;2022-12-18T04:06:06;64.33;;;30.10;;
27889;SDS011;15238;49.082;9.102;2022-12-18T04:08:07;62.03;;;27.77;;
27889;SDS011;15238;49.082;9.102;2022-12-18T04:10:09;67.53;;;28.73;;
27889;SDS011;15238;49.082;9.102;2022-12-18T04:12:12;92.43;;;38.80;;
27889;SDS011;15238;49.082;9.102;2022-12-18T04:14:13;192.77;;;67.43;;
27889;SDS011;15238;49.082;9.102;2022-12-18T04:16:13;217.53;;;75.53;;
27889;SDS011;15238;49.082;9.102;2022-12-18T04:18:14;97.37;;;38.90;;
27889;SDS011;15238;49.082;9.102;2022-12-18T04:20:14;231.13;;;79.53;;
27889;SDS011;15238;49.082;9.102;2022-12-18T04:22:15;216.60;;;73.87;;
27889;SDS011;15238;49.082;9.102;2022-12-18T04:24:15;70.30;;;31.33;;
27889;SDS011;15238;49.082;9.102;2022-12-18T04:26:16;66.60;;;29.60;;
27889;SDS011;15238;49.082;9.102;2022-12-18T04:28:17;221.20;;;72.70;;
27889;SDS011;15238;49.082;9.102;2022-12-18T04:30:17;90.93;;;33.27;;
27889;SDS011;15238;49.082;9.102;2022-12-18T04:32:18;130.67;;;49.80;;
27889;SDS011;15238;49.082;9.102;2022-12-18T04:34:18;108.30;;;44.90;;
27889;SDS011;15238;49.082;9.102;2022-12-18T04:36:19;155.93;;;64.40;;
27889;SDS011;15238;49.082;9.102;2022-12-18T04:38:20;225.67;;;94.30;;
27889;SDS011;15238;49.082;9.102;2022-12-18T04:40:20;130.07;;;57.20;;
27889;SDS011;15238;49.082;9.102;2022-12-18T04:42:21;135.23;;;54.47;;
27889;SDS011;15238;49.082;9.102;2022-12-18T04:44:21;102.60;;;43.93;;
27889;SDS011;15238;49.082;9.102;2022-12-18T04:46:22;140.90;;;60.93;;
27889;SDS011;15238;49.082;9.102;2022-12-18T04:48:22;121.17;;;54.87;;
27889;SDS011;15238;49.082;9.102;2022-12-18T04:50:23;77.17;;;33.30;;
27889;SDS011;15238;49.082;9.102;2022-12-18T04:52:24;55.57;;;26.37;;
27889;SDS011;15238;49.082;9.102;2022-12-18T04:54:24;61.63;;;25.20;;
27889;SDS011;15238;49.082;9.102;2022-12-18T04:56:25;64.13;;;28.40;;
27889;SDS011;15238;49.082;9.102;2022-12-18T04:58:25;59.50;;;24.30;;
27889;SDS011;15238;49.082;9.102;2022-12-18T05:00:26;57.13;;;25.97;;
27889;SDS011;15238;49.082;9.102;2022-12-18T05:02:27;62.60;;;25.80;;
27889;SDS011;15238;49.082;9.102;2022-12-18T05:04:27;60.30;;;25.67;;
27889;SDS011;15238;49.082;9.102;2022-12-18T05:06:28;59.30;;;26.03;;
27889;SDS011;15238;49.082;9.102;2022-12-18T05:08:28;59.53;;;26.60;;
27889;SDS011;15238;49.082;9.102;2022-12-18T05:10:29;55.73;;;24.93;;
27889;SDS011;15238;49.082;9.102;2022-12-18T05:12:30;61.37;;;26.43;;
27889;SDS011;15238;49.082;9.102;2022-12-18T05:14:31;58.83;;;25.97;;
27889;SDS011;15238;49.082;9.102;2022-12-18T05:16:31;60.87;;;25.43;;
27889;SDS011;15238;49.082;9.102;2022-12-18T05:18:32;62.23;;;25.40;;
27889;SDS011;15238;49.082;9.102;2022-12-18T05:20:33;60.10;;;24.17;;
27889;SDS011;15238;49.082;9.102;2022-12-18T05:22:33;58.70;;;25.60;;
27889;SDS011;15238;49.082;9.102;2022-12-18T05:24:34;55.93;;;22.87;;
27889;SDS011;15238;49.082;9.102;2022-12-18T05:26:35;54.40;;;23.93;;
27889;SDS011;15238;49.082;9.102;2022-12-18T05:28:36;56.30;;;24.43;;
27889;SDS011;15238;49.082;9.102;2022-12-18T05:30:36;52.23;;;23.43;;
27889;SDS011;15238;49.082;9.102;2022-12-18T05:32:37;58.97;;;25.77;;
27889;SDS011;15238;49.082;9.102;2022-12-18T05:34:38;54.77;;;23.77;;
27889;SDS011;15238;49.082;9.102;2022-12-18T05:36:38;54.73;;;24.30;;
27889;SDS011;15238;49.082;9.102;2022-12-18T05:38:39;57.43;;;23.33;;
27889;SDS011;15238;49.082;9.102;2022-12-18T05:40:41;59.10;;;24.83;;
27889;SDS011;15238;49.082;9.102;2022-12-18T05:42:42;54.83;;;23.43;;
27889;SDS011;15238;49.082;9.102;2022-12-18T05:44:43;52.10;;;21.67;;
27889;SDS011;15238;49.082;9.102;2022-12-18T05:46:44;54.77;;;24.13;;
27889;SDS011;15238;49.082;9.102;2022-12-18T05:48:44;53.57;;;24.73;;
27889;SDS011;15238;49.082;9.102;2022-12-18T05:50:46;56.63;;;24.03;;
27889;SDS011;15238;49.082;9.102;2022-12-18T05:52:48;52.53;;;24.50;;
27889;SDS011;15238;49.082;9.102;2022-12-18T05:54:48;53.00;;;23.77;;
27889;SDS011;15238;49.082;9.102;2022-12-18T05:56:49;48.90;;;21.83;;
27889;SDS011;15238;49.082;9.102;2022-12-18T05:58:53;52.10;;;22.67;;
27889;SDS011;15238;49.082;9.102;2022-12-18T06:00:54;47.27;;;21.57;;
27889;SDS011;15238;49.082;9.102;2022-12-18T06:02:54;43.83;;;20.43;;
27889;SDS011;15238;49.082;9.102;2022-12-18T06:04:55;44.60;;;21.13;;
27889;SDS011;15238;49.082;9.102;2022-12-18T06:06:55;48.17;;;21.43;;
27889;SDS011;15238;49.082;9.102;2022-12-18T06:08:56;47.60;;;20.67;;
27889;SDS011;15238;49.082;9.102;2022-12-18T06:10:56;46.67;;;20.63;;
27889;SDS011;15238;49.082;9.102;2022-12-18T06:12:57;41.53;;;20.03;;
27889;SDS011;15238;49.082;9.102;2022-12-18T06:14:57;45.00;;;20.77;;
27889;SDS011;15238;49.082;9.102;2022-12-18T06:16:58;43.33;;;20.67;;
27889;SDS011;15238;49.082;9.102;2022-12-18T06:18:59;40.07;;;20.07;;
27889;SDS011;15238;49.082;9.102;2022-12-18T06:21:01;43.70;;;19.70;;
27889;SDS011;15238;49.082;9.102;2022-12-18T06:23:02;49.90;;;20.53;;
27889;SDS011;15238;49.082;9.102;2022-12-18T06:25:03;41.20;;;20.87;;
27889;SDS011;15238;49.082;9.102;2022-12-18T06:27:05;43.53;;;19.67;;
27889;SDS011;15238;49.082;9.102;2022-12-18T06:29:06;45.93;;;19.93;;
27889;SDS011;15238;49.082;9.102;2022-12-18T06:31:07;41.13;;;20.27;;
27889;SDS011;15238;49.082;9.102;2022-12-18T06:33:08;43.20;;;19.43;;
27889;SDS011;15238;49.082;9.102;2022-12-18T06:35:08;42.33;;;19.77;;
27889;SDS011;15238;49.082;9.102;2022-12-18T06:37:09;42.60;;;19.70;;
27889;SDS011;15238;49.082;9.102;2022-12-18T06:39:09;43.40;;;19.33;;
27889;SDS011;15238;49.082;9.102;2022-12-18T06:41:11;43.20;;;20.23;;
27889;SDS011;15238;49.082;9.102;2022-12-18T06:43:16;41.87;;;18.53;;
27889;SDS011;15238;49.082;9.102;2022-12-18T06:45:17;42.97;;;19.70;;
27889;SDS011;15238;49.082;9.102;2022-12-18T06:47:17;43.97;;;18.93;;
27889;SDS011;15238;49.082;9.102;2022-12-18T06:49:18;41.00;;;19.97;;
27889;SDS011;15238;49.082;9.102;2022-12-18T06:51:19;42.27;;;19.57;;
27889;SDS011;15238;49.082;9.102;2022-12-18T06:53:21;43.00;;;19.43;;
27889;SDS011;15238;49.082;9.102;2022-12-18T06:55:22;49.40;;;20.63;;
27889;SDS011;15238;49.082;9.102;2022-12-18T06:57:22;40.73;;;19.93;;
27889;SDS011;15238;49.082;9.102;2022-12-18T06:59:23;40.67;;;18.37;;
27889;SDS011;15238;49.082;9.102;2022-12-18T07:01:23;42.87;;;19.33;;
27889;SDS011;15238;49.082;9.102;2022-12-18T07:03:24;42.30;;;19.40;;
27889;SDS011;15238;49.082;9.102;2022-12-18T07:05:24;42.07;;;19.13;;
27889;SDS011;15238;49.082;9.102;2022-12-18T07:07:25;45.33;;;20.23;;
27889;SDS011;15238;49.082;9.102;2022-12-18T07:09:25;39.10;;;18.93;;
27889;SDS011;15238;49.082;9.102;2022-12-18T07:11:26;45.67;;;20.87;;
27889;SDS011;15238;49.082;9.102;2022-12-18T07:13:27;46.17;;;20.47;;
27889;SDS011;15238;49.082;9.102;2022-12-18T07:15:27;48.33;;;21.37;;
27889;SDS011;15238;49.082;9.102;2022-12-18T07:17:28;50.47;;;22.97;;
27889;SDS011;15238;49.082;9.102;2022-12-18T07:19:29;44.13;;;21.47;;
27889;SDS011;15238;49.082;9.102;2022-12-18T07:21:30;47.37;;;21.97;;
27889;SDS011;15238;49.082;9.102;2022-12-18T07:23:31;51.57;;;23.73;;
27889;SDS011;15238;49.082;9.102;2022-12-18T07:25:36;49.97;;;22.13;;
27889;SDS011;15238;49.082;9.102;2022-12-18T07:27:36;46.00;;;21.60;;
27889;SDS011;15238;49.082;9.102;2022-12-18T07:29:37;48.63;;;21.17;;
27889;SDS011;15238;49.082;9.102;2022-12-18T07:31:37;46.77;;;21.87;;
27889;SDS011;15238;49.082;9.102;2022-12-18T07:33:38;48.30;;;21.67;;
27889;SDS011;15238;49.082;9.102;2022-12-18T07:35:39;55.00;;;23.83;;
27889;SDS011;15238;49.082;9.102;2022-12-18T07:37:39;49.37;;;21.83;;
27889;SDS011;15238;49.082;9.102;2022-12-18T07:39:40;51.83;;;21.10;;
27889;SDS011;15238;49.082;9.102;2022-12-18T07:41:40;43.83;;;21.93;;
27889;SDS011;15238;49.082;9.102;2022-12-18T07:43:45;44.70;;;22.03;;
27889;SDS011;15238;49.082;9.102;2022-12-18T07:45:49;49.07;;;22.60;;
27889;SDS011;15238;49.082;9.102;2022-12-18T07:47:50;49.30;;;22.93;;
27889;SDS011;15238;49.082;9.102;2022-12-18T07:49:51;58.97;;;25.63;;
27889;SDS011;15238;49.082;9.102;2022-12-18T07:51:53;55.57;;;25.03;;
27889;SDS011;15238;49.082;9.102;2022-12-18T07:53:57;52.13;;;25.10;;
27889;SDS011;15238;49.082;9.102;2022-12-18T07:55:58;57.90;;;26.10;;
27889;SDS011;15238;49.082;9.102;2022-12-18T07:58:01;57.33;;;26.57;;
27889;SDS011;15238;49.082;9.102;2022-12-18T08:00:02;51.07;;;24.90;;
27889;SDS011;15238;49.082;9.102;2022-12-18T08:02:03;52.20;;;24.33;;
27889;SDS011;15238;49.082;9.102;2022-12-18T08:04:04;48.33;;;24.73;;
27889;SDS011;15238;49.082;9.102;2022-12-18T08:06:05;57.27;;;25.80;;
27889;SDS011;15238;49.082;9.102;2022-12-18T08:08:07;60.97;;;27.03;;
27889;SDS011;15238;49.082;9.102;2022-12-18T08:10:08;51.47;;;24.27;;
27889;SDS011;15238;49.082;9.102;2022-12-18T08:12:08;50.37;;;23.87;;
27889;SDS011;15238;49.082;9.102;2022-12-18T08:14:09;53.53;;;23.80;;
27889;SDS011;15238;49.082;9.102;2022-12-18T08:16:10;47.63;;;23.60;;
27889;SDS011;15238;49.082;9.102;2022-12-18T08:18:11;52.57;;;24.63;;
27889;SDS011;15238;49.082;9.102;2022-12-18T08:20:11;54.77;;;24.83;;
27889;SDS011;15238;49.082;9.102;2022-12-18T08:22:14;52.77;;;24.63;;
27889;SDS011;15238;49.082;9.102;2022-12-18T08:24:15;47.70;;;23.40;;
27889;SDS011;15238;49.082;9.102;2022-12-18T08:26:17;50.07;;;23.67;;
27889;SDS011;15238;49.082;9.102;2022-12-18T08:28:17;47.50;;;23.40;;
27889;SDS011;15238;49.082;9.102;2022-12-18T08:30:18;48.37;;;23.80;;
27889;SDS011;15238;49.082;9.102;2022-12-18T08:32:19;53.80;;;23.87;;
27889;SDS011;15238;49.082;9.102;2022-12-18T08:34:19;53.17;;;24.90;;
27889;SDS011;15238;49.082;9.102;2022-12-18T08:36:20;62.37;;;33.23;;
27889;SDS011;15238;49.082;9.102;2022-12-18T08:38:22;53.40;;;28.93;;
27889;SDS011;15238;49.082;9.102;2022-12-18T08:40:23;57.87;;;27.90;;
27889;SDS011;15238;49.082;9.102;2022-12-18T08:42:23;50.93;;;27.00;;
27889;SDS011;15238;49.082;9.102;2022-12-18T08:44:42;56.85;;;27.55;;
27889;SDS011;15238;49.082;9.102;2022-12-18T08:46:43;54.73;;;25.67;;
27889;SDS011;15238;49.082;9.102;2022-12-18T08:48:44;55.53;;;26.43;;
27889;SDS011;15238;49.082;9.102;2022-12-18T08:50:53;57.23;;;26.80;;
27889;SDS011;15238;49.082;9.102;2022-12-18T08:52:57;67.73;;;30.43;;
27889;SDS011;15238;49.082;9.102;2022-12-18T08:54:58;104.87;;;46.03;;
27889;SDS011;15238;49.082;9.102;2022-12-18T08:56:58;70.20;;;31.93;;
27889;SDS011;15238;49.082;9.102;2022-12-18T08:58:59;87.67;;;39.73;;
27889;SDS011;15238;49.082;9.102;2022-12-18T09:01:00;68.00;;;30.43;;
27889;SDS011;15238;49.082;9.102;2022-12-18T09:03:02;58.57;;;28.83;;
27889;SDS011;15238;49.082;9.102;2022-12-18T09:05:02;50.23;;;25.50;;
27889;SDS011;15238;49.082;9.102;2022-12-18T09:07:03;49.73;;;26.23;;
27889;SDS011;15238;49.082;9.102;2022-12-18T09:09:04;54.50;;;27.13;;
27889;SDS011;15238;49.082;9.102;2022-12-18T09:11:09;52.03;;;27.77;;
27889;SDS011;15238;49.082;9.102;2022-12-18T09:13:12;58.57;;;28.33;;
27889;SDS011;15238;49.082;9.102;2022-12-18T09:15:15;49.73;;;24.73;;
27889;SDS011;15238;49.082;9.102;2022-12-18T09:17:15;55.60;;;26.80;;
27889;SDS011;15238;49.082;9.102;2022-12-18T09:19:16;53.27;;;26.17;;
27889;SDS011;15238;49.082;9.102;2022-12-18T09:21:17;55.03;;;25.53;;
27889;SDS011;15238;49.082;9.102;2022-12-18T09:23:19;76.27;;;34.60;;
27889;SDS011;15238;49.082;9.102;2022-12-18T09:25:20;65.87;;;30.27;;
27889;SDS011;15238;49.082;9.102;2022-12-18T09:27:21;56.27;;;24.67;;
27889;SDS011;15238;49.082;9.102;2022-12-18T09:29:21;50.03;;;25.67;;
27889;SDS011;15238;49.082;9.102;2022-12-18T09:31:22;46.10;;;24.10;;
27889;SDS011;15238;49.082;9.102;2022-12-18T09:33:24;48.30;;;23.37;;
27889;SDS011;15238;49.082;9.102;2022-12-18T09:35:25;42.80;;;21.90;;
27889;SDS011;15238;49.082;9.102;2022-12-18T09:37:27;51.50;;;24.77;;
27889;SDS011;15238;49.082;9.102;2022-12-18T09:39:28;48.83;;;23.70;;
27889;SDS011;15238;49.082;9.102;2022-12-18T09:43:48;50.67;;;22.30;;
27889;SDS011;15238;49.082;9.102;2022-12-18T09:45:58;45.03;;;21.90;;
27889;SDS011;15238;49.082;9.102;2022-12-18T09:48:01;46.15;;;22.40;;
27889;SDS011;15238;49.082;9.102;2022-12-18T09:50:04;51.03;;;22.43;;
27889;SDS011;15238;49.082;9.102;2022-12-18T09:52:16;55.23;;;22.60;;
27889;SDS011;15238;49.082;9.102;2022-12-18T09:54:31;46.53;;;24.00;;
27889;SDS011;15238;49.082;9.102;2022-12-18T09:56:38;43.53;;;20.53;;
27889;SDS011;15238;49.082;9.102;2022-12-18T09:58:46;40.53;;;19.53;;
27889;SDS011;15238;49.082;9.102;2022-12-18T10:00:58;47.47;;;21.87;;
27889;SDS011;15238;49.082;9.102;2022-12-18T10:03:00;47.80;;;22.57;;
27889;SDS011;15238;49.082;9.102;2022-12-18T10:05:12;46.63;;;21.77;;
27889;SDS011;15238;49.082;9.102;2022-12-18T10:07:18;44.43;;;20.77;;
27889;SDS011;15238;49.082;9.102;2022-12-18T10:13:42;49.03;;;23.40;;
27889;SDS011;15238;49.082;9.102;2022-12-18T10:15:50;46.33;;;21.90;;
27889;SDS011;15238;49.082;9.102;2022-12-18T10:17:58;45.60;;;22.00;;
27889;SDS011;15238;49.082;9.102;2022-12-18T10:24:42;43.03;;;20.83;;
27889;SDS011;15238;49.082;9.102;2022-12-18T10:26:56;40.13;;;20.67;;
27889;SDS011;15238;49.082;9.102;2022-12-18T10:29:12;45.87;;;21.43;;
27889;SDS011;15238;49.082;9.102;2022-12-18T10:31:16;41.50;;;20.73;;
27889;SDS011;15238;49.082;9.102;2022-12-18T10:33:21;56.23;;;25.47;;
27889;SDS011;15238;49.082;9.102;2022-12-18T10:35:25;45.33;;;21.20;;
27889;SDS011;15238;49.082;9.102;2022-12-18T10:37:28;40.87;;;20.10;;
27889;SDS011;15238;49.082;9.102;2022-12-18T10:39:29;43.10;;;20.10;;
27889;SDS011;15238;49.082;9.102;2022-12-18T10:41:30;45.90;;;21.43;;
27889;SDS011;15238;49.082;9.102;2022-12-18T10:43:33;42.57;;;21.70;;
27889;SDS011;15238;49.082;9.102;2022-12-18T10:45:35;41.57;;;21.63;;
27889;SDS011;15238;49.082;9.102;2022-12-18T10:47:35;45.90;;;21.13;;
27889;SDS011;15238;49.082;9.102;2022-12-18T10:49:42;43.17;;;21.00;;
27889;SDS011;15238;49.082;9.102;2022-12-18T10:52:04;42.80;;;21.00;;
27889;SDS011;15238;49.082;9.102;2022-12-18T10:54:15;45.03;;;20.25;;
27889;SDS011;15238;49.082;9.102;2022-12-18T10:56:22;43.90;;;20.93;;
27889;SDS011;15238;49.082;9.102;2022-12-18T10:58:26;39.83;;;20.07;;
27889;SDS011;15238;49.082;9.102;2022-12-18T11:00:34;37.85;;;20.23;;
27889;SDS011;15238;49.082;9.102;2022-12-18T11:02:36;44.13;;;21.80;;
27889;SDS011;15238;49.082;9.102;2022-12-18T11:04:37;47.27;;;20.57;;
27889;SDS011;15238;49.082;9.102;2022-12-18T11:07:00;43.37;;;21.13;;
27889;SDS011;15238;49.082;9.102;2022-12-18T11:09:19;40.03;;;20.20;;
27889;SDS011;15238;49.082;9.102;2022-12-18T11:11:22;46.53;;;21.90;;
27889;SDS011;15238;49.082;9.102;2022-12-18T11:13:25;44.17;;;20.83;;
27889;SDS011;15238;49.082;9.102;2022-12-18T11:15:28;42.65;;;20.90;;
27889;SDS011;15238;49.082;9.102;2022-12-18T11:19:36;45.83;;;22.00;;
27889;SDS011;15238;49.082;9.102;2022-12-18T11:21:39;43.60;;;20.93;;
27889;SDS011;15238;49.082;9.102;2022-12-18T11:23:59;42.07;;;20.37;;
27889;SDS011;15238;49.082;9.102;2022-12-18T11:26:03;42.97;;;20.80;;
27889;SDS011;15238;49.082;9.102;2022-12-18T11:28:25;42.28;;;20.25;;
27889;SDS011;15238;49.082;9.102;2022-12-18T11:30:35;34.85;;;18.17;;
27889;SDS011;15238;49.082;9.102;2022-12-18T11:32:39;38.53;;;19.95;;
27889;SDS011;15238;49.082;9.102;2022-12-18T11:34:48;39.00;;;20.58;;
27889;SDS011;15238;49.082;9.102;2022-12-18T11:36:54;46.95;;;20.73;;
27889;SDS011;15238;49.082;9.102;2022-12-18T11:38:54;42.53;;;20.55;;
27889;SDS011;15238;49.082;9.102;2022-12-18T11:40:59;39.92;;;18.75;;
27889;SDS011;15238;49.082;9.102;2022-12-18T11:43:02;37.28;;;18.02;;
27889;SDS011;15238;49.082;9.102;2022-12-18T11:45:20;38.22;;;19.00;;
27889;SDS011;15238;49.082;9.102;2022-12-18T11:47:31;41.17;;;17.42;;
27889;SDS011;15238;49.082;9.102;2022-12-18T11:51:49;38.47;;;17.67;;
27889;SDS011;15238;49.082;9.102;2022-12-18T11:53:55;39.72;;;17.35;;
27889;SDS011;15238;49.082;9.102;2022-12-18T11:55:59;39.58;;;18.15;;
27889;SDS011;15238;49.082;9.102;2022-12-18T12:00:39;35.22;;;18.27;;
27889;SDS011;15238;49.082;9.102;2022-12-18T12:13:00;38.38;;;16.88;;
27889;SDS011;15238;49.082;9.102;2022-12-18T12:15:01;40.08;;;17.80;;
27889;SDS011;15238;49.082;9.102;2022-12-18T12:17:30;38.55;;;17.48;;
27889;SDS011;15238;49.082;9.102;2022-12-18T12:19:45;39.80;;;17.65;;
27889;SDS011;15238;49.082;9.102;2022-12-18T12:24:40;33.58;;;17.42;;
27889;SDS011;15238;49.082;9.102;2022-12-18T12:27:02;37.10;;;18.92;;
27889;SDS011;15238;49.082;9.102;2022-12-18T12:31:34;39.60;;;17.10;;
27889;SDS011;15238;49.082;9.102;2022-12-18T12:36:17;37.60;;;17.05;;
27889;SDS011;15238;49.082;9.102;2022-12-18T12:38:24;36.28;;;16.73;;
27889;SDS011;15238;49.082;9.102;2022-12-18T12:40:34;35.67;;;16.70;;
27889;SDS011;15238;49.082;9.102;2022-12-18T12:42:44;41.90;;;17.48;;
27889;SDS011;15238;49.082;9.102;2022-12-18T12:45:15;37.58;;;17.02;;
27889;SDS011;15238;49.082;9.102;2022-12-18T12:47:21;36.25;;;16.83;;
27889;SDS011;15238;49.082;9.102;2022-12-18T12:49:27;34.53;;;16.92;;
27889;SDS011;15238;49.082;9.102;2022-12-18T12:51:35;41.58;;;17.77;;
27889;SDS011;15238;49.082;9.102;2022-12-18T12:53:39;34.22;;;17.10;;
27889;SDS011;15238;49.082;9.102;2022-12-18T12:55:41;35.38;;;16.30;;
27889;SDS011;15238;49.082;9.102;2022-12-18T12:57:47;33.83;;;17.67;;
27889;SDS011;15238;49.082;9.102;2022-12-18T13:00:04;35.00;;;16.92;;
27889;SDS011;15238;49.082;9.102;2022-12-18T13:02:13;33.35;;;15.68;;